createdAt,value
2018-09-09T00:01:41.200Z,99.90
2018-09-09T00:04:09.623Z,99.90
2018-09-09T00:06:38.235Z,99.90
2018-09-09T00:09:06.819Z,99.90
2018-09-09T00:11:35.299Z,99.90
2018-09-09T00:14:03.687Z,99.90
2018-09-09T00:16:32.169Z,99.90
2018-09-09T00:19:00.558Z,99.90
2018-09-09T00:21:29.039Z,99.90
2018-09-09T00:23:57.547Z,99.90
2018-09-09T00:26:25.939Z,99.90
2018-09-09T00:28:54.234Z,99.90
2018-09-09T00:31:22.633Z,99.90
2018-09-09T00:33:51.115Z,99.90
2018-09-09T00:36:19.575Z,99.90
2018-09-09T00:38:47.914Z,99.90
2018-09-09T00:41:16.279Z,99.90
2018-09-09T00:43:44.834Z,99.90
2018-09-09T00:46:13.279Z,99.90
2018-09-09T00:48:41.726Z,99.90
2018-09-09T00:51:15.411Z,99.90
2018-09-09T00:53:46.695Z,99.90
2018-09-09T00:56:15.514Z,99.90
2018-09-09T00:58:44.062Z,99.90
2018-09-09T01:01:15.325Z,99.90
2018-09-09T01:03:44.206Z,99.90
2018-09-09T01:06:12.706Z,99.90
2018-09-09T01:08:41.110Z,99.90
2018-09-09T01:11:10.271Z,99.90
2018-09-09T01:13:38.618Z,99.90
2018-09-09T01:16:07.471Z,99.90
2018-09-09T01:18:35.945Z,99.90
2018-09-09T01:21:04.338Z,99.90
2018-09-09T01:23:32.771Z,99.90
2018-09-09T01:26:01.254Z,99.90
2018-09-09T01:28:29.712Z,99.90
2018-09-09T01:30:58.207Z,99.90
2018-09-09T01:33:26.699Z,99.90
2018-09-09T01:35:55.123Z,99.90
2018-09-09T01:38:23.665Z,99.90
2018-09-09T01:40:52.097Z,99.90
2018-09-09T01:43:20.516Z,99.90
2018-09-09T01:45:48.992Z,99.90
2018-09-09T01:48:17.432Z,99.90
2018-09-09T01:50:45.868Z,99.90
2018-09-09T01:53:14.214Z,99.90
2018-09-09T01:55:42.739Z,99.90
2018-09-09T01:58:17.519Z,99.90
2018-09-09T02:00:46.050Z,99.90
2018-09-09T02:03:14.522Z,99.90
2018-09-09T02:05:43.020Z,99.90
2018-09-09T02:08:11.516Z,99.90
2018-09-09T02:10:39.915Z,99.90
2018-09-09T02:13:08.327Z,99.90
2018-09-09T02:15:36.794Z,99.90
2018-09-09T02:18:05.180Z,99.90
2018-09-09T02:20:33.526Z,99.90
2018-09-09T02:23:01.887Z,99.90
2018-09-09T02:25:30.278Z,99.90
2018-09-09T02:27:58.739Z,99.90
2018-09-09T02:30:27.153Z,99.90
2018-09-09T02:32:55.650Z,99.90
2018-09-09T02:35:24.150Z,99.90
2018-09-09T02:37:52.622Z,99.90
2018-09-09T02:40:21.103Z,99.90
2018-09-09T02:42:49.692Z,99.90
2018-09-09T02:45:18.115Z,99.90
2018-09-09T02:47:46.604Z,99.90
2018-09-09T02:50:15.078Z,99.90
2018-09-09T02:52:43.548Z,99.90
2018-09-09T02:55:11.908Z,99.90
2018-09-09T02:57:40.352Z,99.90
2018-09-09T03:00:08.712Z,99.90
2018-09-09T03:02:37.206Z,99.90
2018-09-09T03:05:05.761Z,99.90
2018-09-09T03:07:34.244Z,99.90
2018-09-09T03:10:02.650Z,99.90
2018-09-09T03:12:31.162Z,99.90
2018-09-09T03:14:59.640Z,99.90
2018-09-09T03:17:28.171Z,99.90
2018-09-09T03:19:56.570Z,99.90
2018-09-09T03:22:24.952Z,99.90
2018-09-09T03:24:53.348Z,99.90
2018-09-09T03:27:21.924Z,99.90
2018-09-09T03:29:50.365Z,99.90
2018-09-09T03:32:18.809Z,99.90
2018-09-09T03:34:47.255Z,99.90
2018-09-09T03:37:15.672Z,99.90
2018-09-09T03:39:44.191Z,99.90
2018-09-09T03:42:12.639Z,99.90
2018-09-09T03:44:41.141Z,99.90
2018-09-09T03:47:09.629Z,99.90
2018-09-09T03:49:38.125Z,99.90
2018-09-09T03:52:06.623Z,99.90
2018-09-09T03:54:35.144Z,99.90
2018-09-09T03:57:03.603Z,99.90
2018-09-09T03:59:32.030Z,99.90
2018-09-09T04:02:00.501Z,99.90
2018-09-09T04:04:28.906Z,99.90
2018-09-09T04:06:57.283Z,99.90
2018-09-09T04:09:25.739Z,99.90
2018-09-09T04:11:54.152Z,99.90
2018-09-09T04:14:22.696Z,99.90
2018-09-09T04:16:51.107Z,99.90
2018-09-09T04:19:19.474Z,99.90
2018-09-09T04:21:50.554Z,99.90
2018-09-09T04:24:19.742Z,99.90
2018-09-09T04:26:48.431Z,99.90
2018-09-09T04:29:16.987Z,99.90
2018-09-09T04:31:45.403Z,99.90
2018-09-09T04:34:14.261Z,99.90
2018-09-09T04:36:43.152Z,99.90
2018-09-09T04:39:13.402Z,99.90
2018-09-09T04:41:42.134Z,99.90
2018-09-09T04:44:12.240Z,99.90
2018-09-09T04:46:40.656Z,99.90
2018-09-09T04:49:09.731Z,99.90
2018-09-09T04:51:38.286Z,99.90
2018-09-09T04:54:06.786Z,99.90
2018-09-09T04:56:35.375Z,99.90
2018-09-09T04:59:03.862Z,99.90
2018-09-09T05:01:32.312Z,99.90
2018-09-09T05:04:00.729Z,99.90
2018-09-09T05:06:29.099Z,99.90
2018-09-09T05:08:57.567Z,99.90
2018-09-09T05:11:26.098Z,99.90
2018-09-09T05:13:54.451Z,99.90
2018-09-09T05:16:22.877Z,99.90
2018-09-09T05:18:51.447Z,99.90
2018-09-09T05:21:19.855Z,99.90
2018-09-09T05:23:48.248Z,99.90
2018-09-09T05:26:16.700Z,99.90
2018-09-09T05:28:45.121Z,99.90
2018-09-09T05:31:13.495Z,99.90
2018-09-09T05:33:41.952Z,99.90
2018-09-09T05:36:10.407Z,99.90
2018-09-09T05:38:38.868Z,99.90
2018-09-09T05:41:07.291Z,99.90
2018-09-09T05:43:35.727Z,99.90
2018-09-09T05:46:04.173Z,99.90
2018-09-09T05:48:32.713Z,99.90
2018-09-09T05:51:01.190Z,99.90
2018-09-09T05:53:29.619Z,99.90
2018-09-09T05:55:58.150Z,99.90
2018-09-09T05:58:26.648Z,99.90
2018-09-09T06:00:55.007Z,99.90
2018-09-09T06:03:23.419Z,99.90
2018-09-09T06:05:51.837Z,99.90
2018-09-09T06:08:20.474Z,99.90
2018-09-09T06:10:53.091Z,99.90
2018-09-09T06:13:22.382Z,99.90
2018-09-09T06:15:50.861Z,99.90
2018-09-09T06:18:19.231Z,99.90
2018-09-09T06:20:47.792Z,99.90
2018-09-09T06:23:16.337Z,99.90
2018-09-09T06:25:45.177Z,99.90
2018-09-09T06:28:13.697Z,99.90
2018-09-09T06:30:42.190Z,99.90
2018-09-09T06:33:10.599Z,99.90
2018-09-09T06:35:38.952Z,99.90
2018-09-09T06:38:07.289Z,99.90
2018-09-09T06:40:35.695Z,99.90
2018-09-09T06:43:03.986Z,99.90
2018-09-09T06:45:32.295Z,99.90
2018-09-09T06:48:00.626Z,99.90
2018-09-09T06:50:28.978Z,99.90
2018-09-09T06:52:57.368Z,99.90
2018-09-09T06:55:25.847Z,99.90
2018-09-09T06:57:54.307Z,99.90
2018-09-09T07:00:22.754Z,99.90
2018-09-09T07:02:51.300Z,99.90
2018-09-09T07:05:19.708Z,99.90
2018-09-09T07:07:48.063Z,99.90
2018-09-09T07:10:16.499Z,99.90
2018-09-09T07:12:44.943Z,99.90
2018-09-09T07:15:13.375Z,99.90
2018-09-09T07:17:41.720Z,99.90
2018-09-09T07:20:10.174Z,99.90
2018-09-09T07:22:38.781Z,99.90
2018-09-09T07:25:07.271Z,99.90
2018-09-09T07:27:35.704Z,99.90
2018-09-09T07:30:04.331Z,99.90
2018-09-09T07:32:32.940Z,99.90
2018-09-09T07:35:01.418Z,99.90
2018-09-09T07:37:29.895Z,99.90
2018-09-09T07:39:58.339Z,99.90
2018-09-09T07:42:26.826Z,99.90
2018-09-09T07:44:55.242Z,99.90
2018-09-09T07:47:23.727Z,99.90
2018-09-09T07:49:58.611Z,99.90
2018-09-09T07:52:27.127Z,99.90
2018-09-09T07:54:55.639Z,99.90
2018-09-09T07:57:24.107Z,99.90
2018-09-09T07:59:52.717Z,99.90
2018-09-09T08:02:21.202Z,99.90
2018-09-09T08:04:49.617Z,99.90
2018-09-09T08:07:17.950Z,99.90
2018-09-09T08:09:46.406Z,99.90
2018-09-09T08:12:14.948Z,99.90
2018-09-09T08:14:43.319Z,99.90
2018-09-09T08:17:11.717Z,99.90
2018-09-09T08:19:40.114Z,98.90
2018-09-09T08:22:08.606Z,98.60
2018-09-09T08:24:37.127Z,98.80
2018-09-09T08:27:05.638Z,98.30
2018-09-09T08:29:34.083Z,96.20
2018-09-09T08:32:02.465Z,95.40
2018-09-09T08:34:30.847Z,95.20
2018-09-09T08:36:59.285Z,95.40
2018-09-09T08:39:27.678Z,94.70
2018-09-09T08:41:56.085Z,94.00
2018-09-09T08:44:24.518Z,95.00
2018-09-09T08:46:54.192Z,95.50
2018-09-09T08:49:22.632Z,95.20
2018-09-09T08:54:20.202Z,95.00
2018-09-09T08:56:48.647Z,94.50
2018-09-09T08:59:17.080Z,94.20
2018-09-09T09:01:45.541Z,94.40
2018-09-09T09:04:14.015Z,90.60
2018-09-09T09:06:42.463Z,91.90
2018-09-09T09:09:11.480Z,92.10
2018-09-09T09:11:39.955Z,92.10
2018-09-09T09:14:08.367Z,88.20
2018-09-09T09:16:36.744Z,85.50
2018-09-09T09:19:05.362Z,83.80
2018-09-09T09:21:33.744Z,86.20
2018-09-09T09:24:02.234Z,85.70
2018-09-09T09:26:30.665Z,84.00
2018-09-09T09:28:59.082Z,80.10
2018-09-09T09:31:28.267Z,80.60
2018-09-09T09:33:56.601Z,76.80
2018-09-09T09:36:25.038Z,76.20
2018-09-09T09:38:54.421Z,75.60
2018-09-09T09:41:22.947Z,72.30
2018-09-09T09:43:51.415Z,67.90
2018-09-09T09:46:20.050Z,65.50
2018-09-09T09:48:48.472Z,66.70
2018-09-09T09:51:16.678Z,63.90
2018-09-09T09:53:44.943Z,59.60
2018-09-09T09:56:13.627Z,57.20
2018-09-09T09:58:42.075Z,59.20
2018-09-09T10:01:10.302Z,56.40
2018-09-09T10:03:38.602Z,57.00
2018-09-09T10:06:06.795Z,57.00
2018-09-09T10:08:35.130Z,54.30
2018-09-09T10:11:03.380Z,54.70
2018-09-09T10:13:31.700Z,55.20
2018-09-09T10:15:59.947Z,55.70
2018-09-09T10:18:28.196Z,56.50
2018-09-09T10:20:56.414Z,53.40
2018-09-09T10:23:24.597Z,49.40
2018-09-09T10:25:52.808Z,46.80
2018-09-09T10:28:21.015Z,44.70
2018-09-09T10:30:49.278Z,46.00
2018-09-09T10:33:17.462Z,44.10
2018-09-09T10:35:45.689Z,43.80
2018-09-09T10:38:13.894Z,45.00
2018-09-09T10:40:42.150Z,44.40
2018-09-09T10:43:10.346Z,42.40
2018-09-09T10:45:38.560Z,43.60
2018-09-09T10:48:06.761Z,42.00
2018-09-09T10:50:34.991Z,44.00
2018-09-09T10:53:03.247Z,41.50
2018-09-09T10:55:31.647Z,42.80
2018-09-09T10:57:59.895Z,44.20
2018-09-09T11:00:28.114Z,38.40
2018-09-09T11:02:57.594Z,37.60
2018-09-09T11:05:25.779Z,37.80
2018-09-09T11:07:54.040Z,35.10
2018-09-09T11:10:22.244Z,35.50
2018-09-09T11:12:51.071Z,33.50
2018-09-09T11:15:19.205Z,32.90
2018-09-09T11:17:47.480Z,32.80
2018-09-09T11:20:15.731Z,31.90
2018-09-09T11:22:43.935Z,32.20
2018-09-09T11:25:12.138Z,33.70
2018-09-09T11:27:40.351Z,37.10
2018-09-09T11:30:08.565Z,34.30
2018-09-09T11:32:36.779Z,32.00
2018-09-09T11:35:04.999Z,31.00
2018-09-09T11:37:34.313Z,32.60
2018-09-09T11:40:02.580Z,32.00
2018-09-09T11:42:30.810Z,32.30
2018-09-09T11:44:59.004Z,32.80
2018-09-09T11:47:27.270Z,34.60
2018-09-09T11:49:55.477Z,36.20
2018-09-09T11:52:23.710Z,33.90
2018-09-09T11:54:51.899Z,32.20
2018-09-09T11:57:20.157Z,31.60
2018-09-09T11:59:48.367Z,31.70
2018-09-09T12:02:16.547Z,30.90
2018-09-09T12:04:44.727Z,30.80
2018-09-09T12:07:12.902Z,30.00
2018-09-09T12:09:41.078Z,31.90
2018-09-09T12:12:09.300Z,32.50
2018-09-09T12:14:37.494Z,31.30
2018-09-09T12:17:05.899Z,30.40
2018-09-09T12:19:34.111Z,29.00
2018-09-09T12:22:02.295Z,29.20
2018-09-09T12:24:31.410Z,28.20
2018-09-09T12:26:59.630Z,28.10
2018-09-09T12:29:27.852Z,28.60
2018-09-09T12:31:56.080Z,29.40
2018-09-09T12:34:24.262Z,29.20
2018-09-09T12:36:52.519Z,30.30
2018-09-09T12:39:21.552Z,29.90
2018-09-09T12:41:49.790Z,29.00
2018-09-09T12:44:23.387Z,29.50
2018-09-09T12:46:56.985Z,28.60
2018-09-09T12:49:25.170Z,26.70
2018-09-09T12:51:53.411Z,27.80
2018-09-09T12:54:21.580Z,29.00
2018-09-09T12:56:49.746Z,30.20
2018-09-09T12:59:17.910Z,32.30
2018-09-09T13:01:46.133Z,32.80
2018-09-09T13:04:14.314Z,32.10
2018-09-09T13:06:42.487Z,35.30
2018-09-09T13:09:10.812Z,35.40
2018-09-09T13:11:39.014Z,35.20
2018-09-09T13:14:07.351Z,34.20
2018-09-09T13:16:35.513Z,34.40
2018-09-09T13:19:03.720Z,34.70
2018-09-09T13:21:31.927Z,33.90
2018-09-09T13:24:00.136Z,34.80
2018-09-09T13:26:28.488Z,33.20
2018-09-09T13:28:56.712Z,34.30
2018-09-09T13:31:24.956Z,32.70
2018-09-09T13:33:53.156Z,35.30
2018-09-09T13:36:21.350Z,34.90
2018-09-09T13:38:49.562Z,33.70
2018-09-09T13:41:17.732Z,33.60
2018-09-09T13:43:45.906Z,31.80
2018-09-09T13:46:15.031Z,31.80
2018-09-09T13:48:43.218Z,31.50
2018-09-09T13:51:11.429Z,32.10
2018-09-09T13:53:39.957Z,34.00
2018-09-09T13:56:08.159Z,33.20
2018-09-09T13:58:36.347Z,31.80
2018-09-09T14:01:04.554Z,32.10
2018-09-09T14:03:32.850Z,31.80
2018-09-09T14:06:01.028Z,33.20
2018-09-09T14:08:29.235Z,34.80
2018-09-09T14:10:58.048Z,34.70
2018-09-09T14:13:26.414Z,34.20
2018-09-09T14:15:54.613Z,35.70
2018-09-09T14:18:23.054Z,36.70
2018-09-09T14:20:51.286Z,36.40
2018-09-09T14:23:19.466Z,36.80
2018-09-09T14:25:47.662Z,39.20
2018-09-09T14:28:15.902Z,37.20
2018-09-09T14:30:44.080Z,36.40
2018-09-09T14:33:12.367Z,35.60
2018-09-09T14:35:40.823Z,35.10
2018-09-09T14:38:09.031Z,38.00
2018-09-09T14:40:37.246Z,38.60
2018-09-09T14:43:05.480Z,39.70
2018-09-09T14:45:33.646Z,38.10
2018-09-09T14:48:01.831Z,37.60
2018-09-09T14:50:30.098Z,36.90
2018-09-09T14:52:58.317Z,37.10
2018-09-09T14:55:26.440Z,36.70
2018-09-09T14:57:54.618Z,37.30
2018-09-09T15:00:22.816Z,36.50
2018-09-09T15:02:50.966Z,37.30
2018-09-09T15:05:19.138Z,37.00
2018-09-09T15:07:47.369Z,37.00
2018-09-09T15:10:15.578Z,37.80
2018-09-09T15:12:43.722Z,37.90
2018-09-09T15:15:11.921Z,37.70
2018-09-09T15:17:40.147Z,38.00
2018-09-09T15:20:08.361Z,37.20
2018-09-09T15:22:36.557Z,37.60
2018-09-09T15:25:04.707Z,38.20
2018-09-09T15:27:32.885Z,39.00
2018-09-09T15:30:01.126Z,40.10
2018-09-09T15:32:29.295Z,40.80
2018-09-09T15:34:57.465Z,41.90
2018-09-09T15:37:25.626Z,41.90
2018-09-09T15:39:53.886Z,41.80
2018-09-09T15:42:22.006Z,41.30
2018-09-09T15:44:50.214Z,41.60
2018-09-09T15:47:18.359Z,41.50
2018-09-09T15:49:46.514Z,41.60
2018-09-09T15:52:14.675Z,41.50
2018-09-09T15:54:42.842Z,41.20
2018-09-09T15:57:11.010Z,41.00
2018-09-09T15:59:39.173Z,41.40
2018-09-09T16:02:07.318Z,41.50
2018-09-09T16:04:35.547Z,40.90
2018-09-09T16:07:03.707Z,42.20
2018-09-09T16:09:31.854Z,43.10
2018-09-09T16:12:00.003Z,43.00
2018-09-09T16:14:28.178Z,43.30
2018-09-09T16:16:56.366Z,43.00
2018-09-09T16:19:24.554Z,44.00
2018-09-09T16:21:52.740Z,44.10
2018-09-09T16:24:20.906Z,44.30
2018-09-09T16:26:49.114Z,44.10
2018-09-09T16:29:17.297Z,44.30
2018-09-09T16:31:45.446Z,44.10
2018-09-09T16:34:13.656Z,44.10
2018-09-09T16:36:41.846Z,44.30
2018-09-09T16:39:10.034Z,44.20
2018-09-09T16:41:38.391Z,44.20
2018-09-09T16:44:06.845Z,45.00
2018-09-09T16:46:35.073Z,45.60
2018-09-09T16:49:03.241Z,45.90
2018-09-09T16:51:31.418Z,46.50
2018-09-09T16:53:59.618Z,46.50
2018-09-09T16:56:27.839Z,47.00
2018-09-09T16:58:56.041Z,47.60
2018-09-09T17:01:24.426Z,47.70
2018-09-09T17:03:52.617Z,47.60
2018-09-09T17:06:20.847Z,46.80
2018-09-09T17:08:49.127Z,46.50
2018-09-09T17:11:17.327Z,46.40
2018-09-09T17:13:45.547Z,47.00
2018-09-09T17:16:13.705Z,46.50
2018-09-09T17:18:41.879Z,47.00
2018-09-09T17:21:10.036Z,46.20
2018-09-09T17:23:38.269Z,46.50
2018-09-09T17:26:06.491Z,46.70
2018-09-09T17:28:34.667Z,47.20
2018-09-09T17:31:02.890Z,48.20
2018-09-09T17:33:31.064Z,48.20
2018-09-09T17:35:59.295Z,47.20
2018-09-09T17:38:27.484Z,47.30
2018-09-09T17:40:55.690Z,47.00
2018-09-09T17:43:24.826Z,47.40
2018-09-09T17:45:53.017Z,47.70
2018-09-09T17:48:21.270Z,47.90
2018-09-09T17:50:49.458Z,48.20
2018-09-09T17:53:17.631Z,49.10
2018-09-09T17:55:45.832Z,50.30
2018-09-09T17:58:14.050Z,53.80
2018-09-09T18:00:42.303Z,55.60
2018-09-09T18:03:10.506Z,55.50
2018-09-09T18:05:38.830Z,55.40
2018-09-09T18:08:07.033Z,58.20
2018-09-09T18:10:41.570Z,60.30
2018-09-09T18:13:09.749Z,63.70
2018-09-09T18:15:37.945Z,65.60
2018-09-09T18:18:06.124Z,62.40
2018-09-09T18:20:34.340Z,63.00
2018-09-09T18:23:02.527Z,64.90
2018-09-09T18:25:30.734Z,66.30
2018-09-09T18:28:05.429Z,67.90
2018-09-09T18:30:33.821Z,68.80
2018-09-09T18:33:02.001Z,71.30
2018-09-09T18:35:30.223Z,73.90
2018-09-09T18:37:58.427Z,78.00
2018-09-09T18:40:26.626Z,79.20
2018-09-09T18:42:54.863Z,81.90
2018-09-09T18:45:23.062Z,86.90
2018-09-09T18:47:51.333Z,91.90
2018-09-09T18:50:19.522Z,94.30
2018-09-09T18:52:47.698Z,95.70
2018-09-09T18:55:15.907Z,95.90
2018-09-09T18:57:44.073Z,96.10
2018-09-09T19:00:12.282Z,96.10
2018-09-09T19:02:40.485Z,98.00
2018-09-09T19:05:08.694Z,99.50
2018-09-09T19:07:36.893Z,99.90
2018-09-09T19:10:05.066Z,99.90
2018-09-09T19:12:33.283Z,99.90
2018-09-09T19:15:01.526Z,99.90
2018-09-09T19:17:29.729Z,99.90
2018-09-09T19:19:57.942Z,99.90
2018-09-09T19:22:26.154Z,99.90
2018-09-09T19:24:54.374Z,99.90
2018-09-09T19:27:22.552Z,99.90
2018-09-09T19:29:50.791Z,99.90
2018-09-09T19:32:19.006Z,99.90
2018-09-09T19:34:47.193Z,99.90
2018-09-09T19:37:15.925Z,99.90
2018-09-09T19:39:44.213Z,99.90
2018-09-09T19:42:12.369Z,99.90
2018-09-09T19:44:40.550Z,99.90
2018-09-09T19:47:08.718Z,99.90
2018-09-09T19:49:36.913Z,99.90
2018-09-09T19:52:05.093Z,99.90
2018-09-09T19:54:33.245Z,99.90
2018-09-09T19:57:01.413Z,99.90
2018-09-09T19:59:29.590Z,99.90
2018-09-09T20:01:57.816Z,99.90
2018-09-09T20:04:26.107Z,99.90
2018-09-09T20:06:54.367Z,99.90
2018-09-09T20:09:22.599Z,99.90
2018-09-09T20:11:50.784Z,99.90
2018-09-09T20:14:19.090Z,99.90
2018-09-09T20:16:47.338Z,99.90
2018-09-09T20:19:15.516Z,99.90
2018-09-09T20:21:43.681Z,99.90
2018-09-09T20:24:11.870Z,99.90
2018-09-09T20:26:40.118Z,99.90
2018-09-09T20:29:08.313Z,99.90
2018-09-09T20:31:36.502Z,99.90
2018-09-09T20:34:04.714Z,99.90
2018-09-09T20:36:32.894Z,99.90
2018-09-09T20:39:01.067Z,99.90
2018-09-09T20:41:29.274Z,99.90
2018-09-09T20:43:57.709Z,99.90
2018-09-09T20:46:25.876Z,99.90
2018-09-09T20:48:54.061Z,99.90
2018-09-09T20:51:22.270Z,99.90
2018-09-09T20:53:50.434Z,99.90
2018-09-09T20:56:18.593Z,99.90
2018-09-09T20:58:46.812Z,99.90
2018-09-09T21:01:15.013Z,99.90
2018-09-09T21:03:43.214Z,99.90
2018-09-09T21:06:11.416Z,99.90
2018-09-09T21:08:39.627Z,99.90
2018-09-09T21:11:08.014Z,99.90
2018-09-09T21:13:36.240Z,99.90
2018-09-09T21:16:04.409Z,99.90
2018-09-09T21:18:33.046Z,99.90
2018-09-09T21:21:01.257Z,99.90
2018-09-09T21:23:29.450Z,99.90
2018-09-09T21:25:57.643Z,99.90
2018-09-09T21:28:25.789Z,99.90
2018-09-09T21:30:53.992Z,99.90
2018-09-09T21:33:22.269Z,99.90
2018-09-09T21:35:50.663Z,99.90
2018-09-09T21:38:18.893Z,99.90
2018-09-09T21:40:47.093Z,99.90
2018-09-09T21:43:15.336Z,99.90
2018-09-09T21:45:43.602Z,99.90
2018-09-09T21:48:11.827Z,99.90
2018-09-09T21:50:40.066Z,99.90
2018-09-09T21:53:08.263Z,99.90
2018-09-09T21:55:36.457Z,99.90
2018-09-09T21:58:04.736Z,99.90
2018-09-09T22:00:34.598Z,99.90
2018-09-09T22:03:02.809Z,99.90
2018-09-09T22:05:31.046Z,99.90
2018-09-09T22:07:59.465Z,99.90
2018-09-09T22:10:27.718Z,99.90
2018-09-09T22:12:55.963Z,99.90
2018-09-09T22:15:24.169Z,99.90
2018-09-09T22:17:52.348Z,99.90
2018-09-09T22:20:20.655Z,99.90
2018-09-09T22:22:48.949Z,99.90
2018-09-09T22:25:17.366Z,99.90
2018-09-09T22:27:45.802Z,99.90
2018-09-09T22:30:14.292Z,99.90
2018-09-09T22:32:42.732Z,99.90
2018-09-09T22:35:11.237Z,99.90
2018-09-09T22:37:39.770Z,99.90
2018-09-09T22:40:08.278Z,99.90
2018-09-09T22:42:36.699Z,99.90
2018-09-09T22:45:05.235Z,99.90
2018-09-09T22:47:33.667Z,99.90
2018-09-09T22:50:02.084Z,99.90
2018-09-09T22:52:30.518Z,99.90
2018-09-09T22:54:58.931Z,99.90
2018-09-09T22:57:27.554Z,99.90
2018-09-09T22:59:56.033Z,99.90
2018-09-09T23:02:24.527Z,99.90
2018-09-09T23:04:52.975Z,99.90
2018-09-09T23:07:21.450Z,99.90
2018-09-09T23:09:49.879Z,99.90
2018-09-09T23:12:18.399Z,99.90
2018-09-09T23:14:46.803Z,99.90
2018-09-09T23:17:15.342Z,99.90
2018-09-09T23:19:43.838Z,99.90
2018-09-09T23:22:12.373Z,99.90
2018-09-09T23:24:40.858Z,99.90
2018-09-09T23:27:09.270Z,99.90
2018-09-09T23:29:37.736Z,99.90
2018-09-09T23:32:06.366Z,99.90
2018-09-09T23:34:34.783Z,99.90
2018-09-09T23:37:03.209Z,99.90
2018-09-09T23:39:31.740Z,99.90
2018-09-09T23:42:00.205Z,99.90
2018-09-09T23:44:28.756Z,99.90
2018-09-09T23:46:57.233Z,99.90
2018-09-09T23:49:25.742Z,99.90
2018-09-09T23:51:54.373Z,99.90
2018-09-09T23:54:22.869Z,99.90
2018-09-09T23:56:51.285Z,99.90
2018-09-09T23:59:19.736Z,99.90
